logo dgac
Lunes 19 de Abril del 2021
Buscar por aerodromo o helipuerto
Ingrese nombre de aeródromo, localidad o designador OACI:
TAF: TAF SCCY 191049Z 1912/1924 VRB02KT 6000 -RA FEW012 OVC020 TX12/1913Z TN07/1923Z BECMG 1916/1918 9999 NSW SCT030 BKN200
TAF del 19/04/2021 a las 10:49 UTC
Para mayor información visite www.meteochile.cl
Período de validez: desde el 19 a las 12:00 UTC hasta el 19 a las 24:00 UTC
Viento: dirección variable, velocidad 2 nudos
Visibilidad: 6000 metros
Débil Lluvia
Nubes: Escasa nubosidad a 1200 pies sobre el nivel del aeródromo
Nubes: Cubierto a 2000 pies sobre el nivel del aeródromo
Temperatura máxima: 12ºC el 19 a las 13:00 UTC
Temperatura mínima: 7ºC el 19 a las 23:00 UTC
Se espera un cambio entre las 16:00 UTC del 19 y las 18:00 UTC del 19, :
Visibilidad: 10 km o más
No significant weather phenomena are observed at present
Nubes: Nubosidad parcial a 3000 pies sobre el nivel del aeródromo
Nubes: Nublado a 20000 pies sobre el nivel del aeródromo